Time;durP1;ratioP1;P1;durP2;ratioP2;P2;SDS_P1;SDS_P2;PMS_P1;PMS_P2;Temp;Humidity;BMP_temperature;BMP_pressure;BME280_temperature;BME280_humidity;BME280_pressure;Samples;Min_cycle;Max_cycle;Signal;HPM_P1;HPM_P2
2021/05/30 00:00:37;;;;;;;12.20;8.10;;;9.00;99.90;;;;;;5068391;28;24009;-47
2021/05/30 00:03:04;;;;;;;10.50;8.33;;;8.90;99.90;;;;;;5085881;28;20816;-45
2021/05/30 00:05:31;;;;;;;8.80;7.33;;;8.90;99.90;;;;;;5081633;28;20197;-51
2021/05/30 00:07:58;;;;;;;15.43;8.70;;;8.90;99.90;;;;;;5084890;28;20710;-45
2021/05/30 00:10:25;;;;;;;12.73;8.10;;;8.80;99.90;;;;;;5076752;28;20202;-52
2021/05/30 00:12:53;;;;;;;12.43;8.83;;;8.90;99.90;;;;;;5085788;28;20226;-45
2021/05/30 00:15:19;;;;;;;15.60;8.90;;;8.90;99.90;;;;;;5072363;28;20202;-53
2021/05/30 00:17:45;;;;;;;13.00;8.77;;;8.90;99.90;;;;;;5081337;28;20247;-46
2021/05/30 00:20:12;;;;;;;14.93;9.17;;;8.90;99.90;;;;;;5083355;28;20200;-54
2021/05/30 00:22:38;;;;;;;15.43;9.13;;;8.80;99.90;;;;;;5083384;28;20178;-47
2021/05/30 00:25:06;;;;;;;10.83;8.37;;;8.70;99.90;;;;;;5081572;28;20190;-56
2021/05/30 00:27:33;;;;;;;12.33;9.10;;;8.60;99.90;;;;;;5079820;28;20309;-47
2021/05/30 00:30:00;;;;;;;18.30;9.23;;;8.60;99.90;;;;;;5083251;28;20198;-50
2021/05/30 00:32:26;;;;;;;12.87;8.30;;;8.60;99.90;;;;;;5066143;28;20518;-47
2021/05/30 00:34:53;;;;;;;14.43;9.30;;;8.60;99.90;;;;;;5085353;28;20187;-47
2021/05/30 00:37:20;;;;;;;11.83;8.67;;;8.60;99.90;;;;;;5082144;28;20576;-56
2021/05/30 00:39:46;;;;;;;14.73;9.97;;;8.50;99.90;;;;;;5079525;28;20233;-47
2021/05/30 00:42:12;;;;;;;14.17;9.97;;;8.40;99.90;;;;;;5082486;28;20267;-52
2021/05/30 00:44:38;;;;;;;15.33;9.33;;;8.40;99.90;;;;;;5082222;28;20206;-46
2021/05/30 00:47:05;;;;;;;11.80;8.57;;;8.40;99.90;;;;;;5070711;28;20228;-50
2021/05/30 00:49:31;;;;;;;14.17;9.13;;;8.40;99.90;;;;;;5079986;28;20190;-48
2021/05/30 00:51:58;;;;;;;14.83;8.87;;;8.40;99.90;;;;;;5084488;28;20190;-49
2021/05/30 00:54:24;;;;;;;11.67;8.93;;;8.40;99.90;;;;;;5080975;28;20268;-55
2021/05/30 00:56:50;;;;;;;11.17;8.33;;;8.30;99.90;;;;;;5080374;28;20230;-47
2021/05/30 00:59:16;;;;;;;12.67;9.33;;;8.20;99.90;;;;;;5081339;28;20216;-55
2021/05/30 01:01:43;;;;;;;13.17;8.70;;;8.20;99.90;;;;;;5068930;28;20236;-48
2021/05/30 01:04:11;;;;;;;13.47;8.60;;;8.20;99.90;;;;;;5083469;28;20221;-54
2021/05/30 01:06:38;;;;;;;11.57;9.20;;;8.20;99.90;;;;;;5081486;28;20214;-49
2021/05/30 01:09:05;;;;;;;15.77;8.60;;;8.20;99.90;;;;;;5084294;28;20729;-51
2021/05/30 01:11:32;;;;;;;13.27;9.33;;;8.10;99.90;;;;;;5075997;28;20208;-48
2021/05/30 01:13:59;;;;;;;9.93;8.20;;;8.10;99.90;;;;;;5084306;28;20190;-51
2021/05/30 01:16:26;;;;;;;12.90;9.07;;;8.10;99.90;;;;;;5080395;28;20186;-51
2021/05/30 01:18:56;;;;;;;16.30;10.10;;;8.00;99.90;;;;;;5069710;28;21040;-49
2021/05/30 01:21:24;;;;;;;9.90;7.60;;;8.00;99.90;;;;;;5080232;28;20189;-52
2021/05/30 01:23:51;;;;;;;12.33;8.37;;;7.90;99.90;;;;;;5084266;28;20881;-49
2021/05/30 01:26:18;;;;;;;13.30;8.43;;;7.90;99.90;;;;;;5077002;28;20284;-55
2021/05/30 01:28:44;;;;;;;11.77;8.97;;;7.90;99.90;;;;;;5082583;28;20193;-51
2021/05/30 01:31:10;;;;;;;11.47;9.10;;;7.90;99.90;;;;;;5083248;28;20537;-54
2021/05/30 01:33:36;;;;;;;13.50;8.43;;;7.90;99.90;;;;;;5065850;28;20206;-48
2021/05/30 01:36:03;;;;;;;10.20;8.63;;;7.80;99.90;;;;;;5081662;28;20548;-46
2021/05/30 01:38:30;;;;;;;11.53;8.90;;;7.80;99.90;;;;;;5079882;28;20202;-49
2021/05/30 01:40:57;;;;;;;15.50;8.67;;;7.70;99.90;;;;;;5082506;28;20209;-49
2021/05/30 01:43:23;;;;;;;11.73;8.83;;;7.70;99.90;;;;;;5077669;28;20217;-54
2021/05/30 01:45:49;;;;;;;12.23;9.20;;;7.60;99.90;;;;;;5104032;28;20197;-50
2021/05/30 01:48:15;;;;;;;16.27;9.30;;;7.70;99.90;;;;;;5081787;28;20677;-56
2021/05/30 01:50:47;;;;;;;11.97;8.93;;;7.70;99.90;;;;;;5076223;28;20212;-50
2021/05/30 01:53:14;;;;;;;11.67;8.23;;;7.70;99.90;;;;;;5082230;28;20815;-56
2021/05/30 01:56:54;;;;;;;14.80;8.90;;;7.60;99.90;;;;;;5082069;28;20832;-52
2021/05/30 01:58:40;;;;;;;14.70;8.97;;;7.60;99.90;;;;;;5076463;28;20225;-52
2021/05/30 02:01:07;;;;;;;13.20;8.70;;;7.60;99.90;;;;;;5083003;28;20720;-53
2021/05/30 02:03:35;;;;;;;12.37;8.60;;;7.60;99.90;;;;;;5080342;28;20217;-49
2021/05/30 02:06:03;;;;;;;12.73;9.30;;;7.70;99.90;;;;;;5069109;28;20213;-51
2021/05/30 02:08:32;;;;;;;14.40;9.03;;;7.60;99.90;;;;;;5079298;28;20216;-49
2021/05/30 02:10:58;;;;;;;12.00;8.73;;;7.50;99.90;;;;;;5083273;28;20192;-50
2021/05/30 02:13:26;;;;;;;11.30;9.87;;;7.50;99.90;;;;;;5075034;28;20193;-55
2021/05/30 02:15:53;;;;;;;13.60;9.67;;;7.40;99.90;;;;;;5083770;28;20571;-50
2021/05/30 02:18:19;;;;;;;11.47;8.53;;;7.30;99.90;;;;;;5080480;28;20214;-57
2021/05/30 02:20:46;;;;;;;11.87;7.93;;;7.30;99.90;;;;;;5067715;28;20201;-52
2021/05/30 02:23:15;;;;;;;15.10;9.80;;;7.20;99.90;;;;;;5081779;28;20202;-56
2021/05/30 02:25:41;;;;;;;12.57;9.20;;;7.20;99.90;;;;;;5081425;28;20198;-52
2021/05/30 02:28:08;;;;;;;12.63;9.00;;;7.20;99.90;;;;;;5082702;28;20205;-55
2021/05/30 02:30:34;;;;;;;11.27;8.70;;;7.10;99.90;;;;;;5075316;28;20204;-53
2021/05/30 02:33:03;;;;;;;12.87;9.17;;;7.10;99.90;;;;;;5083507;28;20225;-52
2021/05/30 02:35:29;;;;;;;13.70;9.30;;;7.00;99.90;;;;;;5063466;28;20244;-53
2021/05/30 02:37:55;;;;;;;16.03;9.47;;;7.00;99.90;;;;;;5082913;28;20214;-49
2021/05/30 02:40:22;;;;;;;12.23;8.93;;;7.00;99.90;;;;;;5078914;28;20194;-56
2021/05/30 02:42:48;;;;;;;17.13;9.80;;;7.00;99.90;;;;;;5083070;28;20281;-47
2021/05/30 02:45:15;;;;;;;13.00;9.93;;;7.00;99.90;;;;;;5079758;28;20225;-51
2021/05/30 02:47:42;;;;;;;15.17;9.77;;;7.00;99.90;;;;;;5078819;28;20312;-51
2021/05/30 02:50:10;;;;;;;16.67;10.10;;;7.00;99.90;;;;;;5077324;28;20257;-56
2021/05/30 02:52:36;;;;;;;12.33;9.03;;;6.90;99.90;;;;;;5070881;28;20186;-50
2021/05/30 02:55:03;;;;;;;14.63;9.87;;;6.90;99.90;;;;;;5081900;28;20655;-51
2021/05/30 02:57:29;;;;;;;12.73;10.20;;;6.80;99.90;;;;;;5078848;28;20212;-49
2021/05/30 02:59:55;;;;;;;14.43;10.23;;;6.80;99.90;;;;;;5082903;28;20202;-52
2021/05/30 03:02:21;;;;;;;12.20;10.33;;;6.80;99.90;;;;;;5075254;28;20198;-53
2021/05/30 03:04:47;;;;;;;13.10;9.23;;;6.70;99.90;;;;;;5081492;28;20722;-50
2021/05/30 03:07:14;;;;;;;13.67;10.13;;;6.70;99.90;;;;;;5062654;28;20640;-54
2021/05/30 03:09:40;;;;;;;16.13;11.47;;;6.70;99.90;;;;;;5080425;28;20918;-52
2021/05/30 03:12:07;;;;;;;17.53;10.30;;;6.60;99.90;;;;;;5081573;28;20194;-54
2021/05/30 03:14:33;;;;;;;20.80;10.50;;;6.60;99.90;;;;;;5083133;28;20190;-51
2021/05/30 03:16:59;;;;;;;14.90;10.80;;;6.60;99.90;;;;;;5082332;28;20229;-52
2021/05/30 03:19:26;;;;;;;13.80;10.13;;;6.70;99.90;;;;;;5080724;28;20190;-52
2021/05/30 03:21:52;;;;;;;17.57;10.07;;;6.70;99.90;;;;;;5086251;28;20194;-52
2021/05/30 03:24:19;;;;;;;14.57;10.07;;;6.70;99.90;;;;;;5065416;28;20211;-52
2021/05/30 03:26:45;;;;;;;13.10;9.77;;;6.70;99.90;;;;;;5080879;28;20252;-46
2021/05/30 03:29:11;;;;;;;13.97;11.17;;;6.70;99.90;;;;;;5081677;28;20186;-52
2021/05/30 03:31:37;;;;;;;13.40;10.27;;;6.70;99.90;;;;;;5076730;28;20931;-47
2021/05/30 03:34:04;;;;;;;14.17;10.60;;;6.70;99.90;;;;;;5079831;28;20312;-47
2021/05/30 03:36:31;;;;;;;15.50;10.77;;;6.70;99.90;;;;;;5081137;28;20930;-49
2021/05/30 03:39:01;;;;;;;16.53;10.87;;;6.70;99.90;;;;;;5067811;28;20259;-47
2021/05/30 03:41:35;;;;;;;17.77;11.77;;;6.80;99.90;;;;;;5081216;28;20187;-47
2021/05/30 03:44:01;;;;;;;24.60;12.83;;;6.80;99.90;;;;;;5086310;28;20217;-49
2021/05/30 03:46:28;;;;;;;18.07;12.63;;;6.80;99.90;;;;;;5080359;28;20229;-47
2021/05/30 03:48:54;;;;;;;26.73;13.60;;;6.90;99.90;;;;;;5080447;28;20230;-48
2021/05/30 03:51:20;;;;;;;20.50;13.50;;;7.00;99.90;;;;;;5074294;28;20297;-55
2021/05/30 03:53:46;;;;;;;24.50;14.83;;;7.10;99.90;;;;;;5070445;28;20194;-47
2021/05/30 03:56:12;;;;;;;19.93;13.37;;;7.20;99.90;;;;;;5083602;28;20212;-53
2021/05/30 03:58:39;;;;;;;19.10;13.20;;;7.20;99.90;;;;;;5083288;28;20217;-47
2021/05/30 04:01:06;;;;;;;29.73;13.43;;;7.30;99.90;;;;;;5085405;28;20182;-54
2021/05/30 04:03:32;;;;;;;47.13;13.23;;;7.30;99.90;;;;;;5078039;28;21904;-47
2021/05/30 04:05:58;;;;;;;17.97;12.63;;;7.30;99.90;;;;;;5085189;28;20194;-48
2021/05/30 04:08:24;;;;;;;35.17;15.03;;;7.40;99.90;;;;;;5068086;28;20266;-56
2021/05/30 04:10:51;;;;;;;38.97;14.83;;;7.40;99.90;;;;;;5074868;28;20205;-49
2021/05/30 04:13:17;;;;;;;22.63;14.43;;;7.40;99.90;;;;;;5077658;28;20597;-48
2021/05/30 04:15:44;;;;;;;38.83;15.67;;;7.50;99.90;;;;;;5076901;28;20206;-48
2021/05/30 04:18:10;;;;;;;30.50;16.10;;;7.50;99.90;;;;;;5083938;28;20214;-52
2021/05/30 04:20:36;;;;;;;27.60;16.73;;;7.60;99.90;;;;;;5077818;28;20198;-49
2021/05/30 04:23:02;;;;;;;27.87;15.20;;;7.70;99.90;;;;;;5085810;28;20598;-51
2021/05/30 04:25:29;;;;;;;28.73;15.73;;;7.80;99.90;;;;;;5065839;28;20522;-49
2021/05/30 04:27:55;;;;;;;21.80;14.87;;;7.80;99.90;;;;;;5084849;28;20301;-49
2021/05/30 04:30:21;;;;;;;25.73;17.07;;;7.90;99.90;;;;;;5075421;28;20194;-49
2021/05/30 04:32:48;;;;;;;36.67;17.23;;;8.00;99.90;;;;;;5085230;28;20217;-49
2021/05/30 04:35:15;;;;;;;29.60;16.70;;;7.90;99.90;;;;;;5077962;28;20209;-48
2021/05/30 04:37:41;;;;;;;26.07;16.87;;;8.00;99.90;;;;;;5083862;28;21017;-49
2021/05/30 04:40:08;;;;;;;26.33;16.53;;;8.00;99.90;;;;;;5069095;28;20336;-50
2021/05/30 04:42:34;;;;;;;29.47;17.70;;;8.10;99.90;;;;;;5081960;28;20190;-50
2021/05/30 04:45:00;;;;;;;27.73;17.80;;;8.20;99.90;;;;;;5084522;28;20217;-49
2021/05/30 04:47:27;;;;;;;28.10;17.87;;;8.20;99.90;;;;;;5075843;28;20218;-50
2021/05/30 04:49:54;;;;;;;36.73;18.00;;;8.30;99.90;;;;;;5083912;28;20269;-49
2021/05/30 04:52:20;;;;;;;31.13;17.67;;;8.30;99.90;;;;;;5077040;28;20194;-48
2021/05/30 04:54:46;;;;;;;30.07;17.97;;;8.40;99.90;;;;;;5081834;28;20561;-49
2021/05/30 04:57:12;;;;;;;31.20;18.33;;;8.40;99.90;;;;;;5068581;28;20225;-48
2021/05/30 04:59:38;;;;;;;30.20;18.50;;;8.50;99.90;;;;;;5081963;28;20274;-50
2021/05/30 05:02:05;;;;;;;55.27;19.63;;;8.60;99.90;;;;;;5083995;28;20652;-50
2021/05/30 05:04:31;;;;;;;43.73;19.87;;;8.60;99.90;;;;;;5076464;28;20210;-48
2021/05/30 05:06:58;;;;;;;47.90;19.60;;;8.50;99.90;;;;;;5080117;28;20229;-48
2021/05/30 05:09:24;;;;;;;32.17;18.80;;;8.50;99.90;;;;;;5079774;28;20190;-48
2021/05/30 05:11:50;;;;;;;42.60;19.67;;;8.60;99.90;;;;;;5070256;28;20232;-48
2021/05/30 05:14:16;;;;;;;34.37;18.87;;;8.60;99.90;;;;;;5081091;28;20201;-49
2021/05/30 05:16:43;;;;;;;49.30;19.63;;;8.60;99.90;;;;;;5083391;28;20225;-50
2021/05/30 05:19:09;;;;;;;67.17;20.83;;;8.60;99.90;;;;;;5077496;28;20630;-51
2021/05/30 05:21:35;;;;;;;36.20;18.73;;;8.60;99.90;;;;;;5077394;28;20234;-49
2021/05/30 05:24:02;;;;;;;59.60;21.37;;;8.60;99.90;;;;;;5083758;28;20213;-49
2021/05/30 05:26:28;;;;;;;50.27;20.87;;;8.60;99.90;;;;;;5066113;28;23654;-50
2021/05/30 05:28:54;;;;;;;34.27;19.33;;;8.60;99.90;;;;;;5083615;28;20197;-51
2021/05/30 05:31:20;;;;;;;39.67;19.50;;;8.60;99.90;;;;;;5080497;28;20198;-54
2021/05/30 05:33:46;;;;;;;31.23;19.43;;;8.60;99.90;;;;;;5078788;28;20204;-54
2021/05/30 05:36:16;;;;;;;48.00;18.70;;;8.70;99.90;;;;;;5081697;28;20194;-53
2021/05/30 05:38:42;;;;;;;39.37;19.27;;;8.70;99.90;;;;;;5077687;28;20279;-50
2021/05/30 05:41:09;;;;;;;38.47;17.80;;;8.80;99.90;;;;;;5078195;28;20243;-49
2021/05/30 05:43:35;;;;;;;31.53;18.07;;;8.90;99.90;;;;;;5072237;28;20210;-53
2021/05/30 05:46:01;;;;;;;32.20;17.97;;;8.80;99.90;;;;;;5083757;28;20210;-49
2021/05/30 05:48:27;;;;;;;31.57;17.60;;;8.90;99.90;;;;;;5079697;28;20206;-49
2021/05/30 05:50:53;;;;;;;37.33;17.53;;;8.90;99.90;;;;;;5078247;28;20208;-51
2021/05/30 05:53:19;;;;;;;30.00;17.40;;;8.90;99.90;;;;;;5076047;28;20205;-52
2021/05/30 05:55:45;;;;;;;31.70;17.43;;;8.90;99.90;;;;;;5083353;28;20290;-49
2021/05/30 05:58:12;;;;;;;31.73;16.57;;;8.90;99.90;;;;;;5067824;28;20206;-48
2021/05/30 06:00:39;;;;;;;29.90;16.27;;;9.00;99.90;;;;;;5081220;28;20478;-48
2021/05/30 06:03:05;;;;;;;27.40;15.97;;;9.00;99.90;;;;;;5083388;28;20186;-51
2021/05/30 06:05:31;;;;;;;33.37;17.63;;;9.00;99.90;;;;;;5075359;28;20229;-48
2021/05/30 06:07:58;;;;;;;30.63;18.20;;;9.10;99.90;;;;;;5082465;28;20690;-48
2021/05/30 06:10:26;;;;;;;33.93;17.93;;;9.10;99.90;;;;;;5074219;28;20204;-48
2021/05/30 06:12:54;;;;;;;33.97;19.30;;;9.10;99.90;;;;;;5068746;28;20202;-49
2021/05/30 06:15:21;;;;;;;31.60;18.80;;;9.10;99.90;;;;;;5079051;28;20194;-50
2021/05/30 06:17:52;;;;;;;29.97;18.50;;;9.10;99.90;;;;;;5083507;28;20221;-47
2021/05/30 06:20:21;;;;;;;33.07;18.67;;;9.10;99.90;;;;;;5076289;28;20190;-48
2021/05/30 06:22:47;;;;;;;33.07;19.03;;;9.20;99.90;;;;;;5082870;28;20201;-49
2021/05/30 06:25:14;;;;;;;33.10;20.40;;;9.20;99.90;;;;;;5076148;28;20217;-49
2021/05/30 06:27:40;;;;;;;34.47;20.13;;;9.30;99.90;;;;;;5067929;28;20342;-50
2021/05/30 06:30:07;;;;;;;35.20;18.93;;;9.40;99.90;;;;;;5081727;28;20293;-49
2021/05/30 06:32:34;;;;;;;32.53;19.97;;;9.40;99.90;;;;;;5080982;28;20260;-48
2021/05/30 06:35:01;;;;;;;31.47;18.57;;;9.40;99.90;;;;;;5071357;28;20205;-48
2021/05/30 06:37:27;;;;;;;31.30;18.43;;;9.50;99.90;;;;;;5074544;28;20341;-51
2021/05/30 06:39:53;;;;;;;28.37;18.90;;;9.60;99.90;;;;;;5074263;28;20208;-49
2021/05/30 06:42:19;;;;;;;35.80;21.03;;;9.50;99.90;;;;;;5083293;28;20212;-49
2021/05/30 06:44:45;;;;;;;39.40;19.77;;;9.60;99.90;;;;;;5067503;28;20217;-49
2021/05/30 06:47:12;;;;;;;31.17;19.73;;;9.60;99.90;;;;;;5072024;28;20210;-51
2021/05/30 06:49:39;;;;;;;31.77;19.03;;;9.70;99.90;;;;;;5062829;28;20190;-49
2021/05/30 06:52:06;;;;;;;28.93;18.97;;;9.70;99.90;;;;;;5079803;28;21981;-51
2021/05/30 06:54:32;;;;;;;29.30;19.80;;;9.80;99.90;;;;;;5085663;28;20269;-53
2021/05/30 06:56:58;;;;;;;33.50;20.13;;;9.90;99.90;;;;;;5080201;28;20220;-49
2021/05/30 06:59:24;;;;;;;37.73;20.23;;;9.80;99.90;;;;;;5061582;28;20231;-47
2021/05/30 07:01:50;;;;;;;34.10;19.90;;;9.90;99.90;;;;;;5076171;28;20252;-50
2021/05/30 07:04:16;;;;;;;27.20;18.33;;;10.00;99.90;;;;;;5063945;28;20272;-50
2021/05/30 07:06:43;;;;;;;27.93;19.03;;;10.00;99.90;;;;;;5073180;28;20221;-46
2021/05/30 07:09:09;;;;;;;31.63;20.43;;;10.00;99.90;;;;;;5085526;28;20281;-49
2021/05/30 07:11:36;;;;;;;31.93;20.27;;;10.00;99.90;;;;;;5079621;28;20315;-50
2021/05/30 07:14:03;;;;;;;28.60;19.40;;;10.20;99.90;;;;;;5072691;28;20272;-50
2021/05/30 07:16:29;;;;;;;28.40;18.47;;;10.30;99.90;;;;;;5082668;28;20964;-49
2021/05/30 07:18:55;;;;;;;27.33;18.57;;;10.30;99.90;;;;;;5086203;28;20220;-48
2021/05/30 07:21:22;;;;;;;26.23;18.67;;;10.40;99.90;;;;;;5081747;28;20570;-52
2021/05/30 07:23:49;;;;;;;25.63;18.13;;;10.40;99.90;;;;;;5083956;28;20216;-48
2021/05/30 07:26:15;;;;;;;24.40;17.53;;;10.60;99.90;;;;;;5069318;28;20350;-53
2021/05/30 07:28:44;;;;;;;28.33;18.27;;;10.60;99.90;;;;;;5079984;28;20418;-46
2021/05/30 07:31:10;;;;;;;26.63;18.17;;;10.70;99.90;;;;;;5066601;28;20198;-50
2021/05/30 07:33:36;;;;;;;29.27;18.47;;;10.80;99.90;;;;;;5079250;28;20190;-49
2021/05/30 07:36:03;;;;;;;27.13;18.63;;;10.90;99.90;;;;;;5086841;28;20196;-54
2021/05/30 07:38:30;;;;;;;28.90;18.13;;;10.90;99.90;;;;;;5077799;28;20249;-52
2021/05/30 07:40:57;;;;;;;22.63;17.33;;;11.10;99.90;;;;;;5085643;28;20244;-50
2021/05/30 07:43:23;;;;;;;26.30;15.40;;;11.20;99.90;;;;;;5078940;28;20208;-52
2021/05/30 07:45:49;;;;;;;24.23;16.07;;;11.30;99.90;;;;;;5067210;28;20220;-47
2021/05/30 07:48:15;;;;;;;23.33;15.40;;;11.20;99.90;;;;;;5083841;28;20210;-52
2021/05/30 07:50:41;;;;;;;21.93;14.80;;;11.30;99.90;;;;;;5079728;28;20190;-50
2021/05/30 07:53:08;;;;;;;20.97;14.60;;;11.40;99.90;;;;;;5081617;28;20202;-50
2021/05/30 07:55:34;;;;;;;20.30;14.27;;;11.50;99.90;;;;;;5076109;28;20214;-52
2021/05/30 07:58:01;;;;;;;19.90;13.20;;;11.50;99.90;;;;;;5074584;28;20217;-50
2021/05/30 08:00:27;;;;;;;23.60;14.57;;;11.40;99.90;;;;;;5059052;28;20198;-51
2021/05/30 08:02:53;;;;;;;25.43;13.77;;;11.50;99.90;;;;;;5083807;28;20243;-52
2021/05/30 08:05:21;;;;;;;17.10;13.07;;;11.50;99.90;;;;;;5063364;28;20215;-52
2021/05/30 08:07:48;;;;;;;22.43;14.10;;;11.60;99.90;;;;;;5066470;28;20272;-49
2021/05/30 08:10:15;;;;;;;19.27;14.70;;;11.70;99.90;;;;;;5072606;28;20205;-52
2021/05/30 08:12:42;;;;;;;19.30;12.67;;;11.90;99.90;;;;;;5074928;28;20206;-50
2021/05/30 08:15:11;;;;;;;15.33;11.10;;;12.00;99.90;;;;;;5077739;28;20196;-49
2021/05/30 08:17:38;;;;;;;16.43;10.87;;;12.10;99.90;;;;;;5066933;28;20448;-50
2021/05/30 08:20:06;;;;;;;17.67;11.60;;;12.20;99.90;;;;;;5074958;28;20517;-52
2021/05/30 08:22:33;;;;;;;17.33;11.50;;;12.30;99.90;;;;;;5071415;28;20924;-53
2021/05/30 08:25:00;;;;;;;15.33;11.30;;;12.40;99.90;;;;;;5079288;28;20308;-49
2021/05/30 08:27:26;;;;;;;14.90;11.47;;;12.50;99.90;;;;;;5074690;28;20225;-48
2021/05/30 08:29:52;;;;;;;15.80;11.40;;;12.40;99.90;;;;;;5078513;28;20201;-50
2021/05/30 08:32:20;;;;;;;15.47;10.60;;;12.40;99.90;;;;;;5067299;28;20198;-48
2021/05/30 08:34:47;;;;;;;15.80;10.30;;;12.50;99.90;;;;;;5075060;28;20198;-51
2021/05/30 08:37:14;;;;;;;17.47;11.43;;;12.60;99.90;;;;;;5072619;28;20624;-52
2021/05/30 08:39:40;;;;;;;17.37;11.47;;;12.80;99.90;;;;;;5083660;28;20989;-53
2021/05/30 08:42:06;;;;;;;16.03;11.20;;;12.70;99.90;;;;;;5085071;28;20251;-54
2021/05/30 08:44:32;;;;;;;16.87;11.13;;;12.80;99.90;;;;;;5070820;28;20635;-52
2021/05/30 08:46:59;;;;;;;17.10;10.43;;;13.00;99.90;;;;;;5069542;28;20262;-48
2021/05/30 08:49:26;;;;;;;19.60;10.63;;;13.20;99.90;;;;;;5073401;28;20271;-48
2021/05/30 08:51:54;;;;;;;19.03;10.73;;;13.30;99.90;;;;;;5079873;28;20776;-50
2021/05/30 08:54:21;;;;;;;17.87;11.03;;;13.30;99.90;;;;;;5073839;28;20222;-47
2021/05/30 08:56:48;;;;;;;16.03;10.90;;;13.40;99.90;;;;;;5082806;28;20228;-47
2021/05/30 08:59:18;;;;;;;14.00;10.70;;;13.40;99.90;;;;;;5077050;28;20205;-50
2021/05/30 09:01:45;;;;;;;15.40;11.07;;;13.50;99.90;;;;;;5078782;28;20190;-46
2021/05/30 09:04:12;;;;;;;14.87;10.37;;;13.50;99.90;;;;;;5069306;28;20756;-52
2021/05/30 09:06:41;;;;;;;14.57;9.83;;;13.50;99.90;;;;;;5081332;28;20196;-48
2021/05/30 09:09:09;;;;;;;16.30;10.13;;;13.50;99.90;;;;;;5083390;28;20209;-50
2021/05/30 09:11:41;;;;;;;14.37;11.10;;;13.70;99.90;;;;;;5059762;28;20756;-47
2021/05/30 09:14:11;;;;;;;11.30;9.73;;;13.80;99.90;;;;;;5071139;28;20194;-51
2021/05/30 09:16:56;;;;;;;15.87;10.50;;;14.00;99.90;;;;;;5071856;28;20194;-46
2021/05/30 09:19:35;;;;;;;16.17;9.30;;;14.00;99.90;;;;;;5065859;28;20206;-50
2021/05/30 09:22:17;;;;;;;13.43;9.70;;;14.20;99.90;;;;;;5083562;28;20659;-48
2021/05/30 09:25:08;;;;;;;13.37;8.47;;;14.20;99.90;;;;;;5081758;28;20216;-46
2021/05/30 09:27:36;;;;;;;10.23;8.27;;;14.30;99.90;;;;;;5073707;28;20206;-46
2021/05/30 09:30:28;;;;;;;14.47;8.67;;;14.30;99.90;;;;;;5082440;28;20205;-49
2021/05/30 09:33:06;;;;;;;16.03;9.10;;;14.30;99.90;;;;;;5063758;28;20202;-47
2021/05/30 09:35:54;;;;;;;11.03;9.10;;;14.30;99.90;;;;;;5061973;28;20198;-48
2021/05/30 09:38:28;;;;;;;13.87;8.73;;;14.40;99.90;;;;;;5066439;28;20228;-47
2021/05/30 09:40:56;;;;;;;12.93;8.37;;;14.60;99.90;;;;;;5074786;28;20209;-52
2021/05/30 09:43:24;;;;;;;19.07;9.50;;;14.70;99.90;;;;;;5078642;28;20209;-46
2021/05/30 09:46:10;;;;;;;12.57;9.17;;;14.80;99.90;;;;;;5068873;28;20309;-47
2021/05/30 09:48:40;;;;;;;12.70;9.47;;;14.80;99.90;;;;;;5071637;28;20252;-50
2021/05/30 09:51:40;;;;;;;14.43;9.60;;;14.80;99.90;;;;;;5070523;28;20216;-48
2021/05/30 09:54:10;;;;;;;13.13;9.00;;;14.90;99.90;;;;;;5080367;28;20210;-47
2021/05/30 09:56:42;;;;;;;16.17;9.50;;;14.90;99.90;;;;;;5082652;28;20198;-49
2021/05/30 09:59:10;;;;;;;14.23;8.67;;;15.10;99.90;;;;;;5076258;28;20866;-49
2021/05/30 10:01:58;;;;;;;14.57;9.57;;;15.20;99.90;;;;;;5077080;28;20681;-48
2021/05/30 10:04:27;;;;;;;10.83;8.93;;;15.20;99.90;;;;;;5074477;28;20248;-48
2021/05/30 10:06:55;;;;;;;12.83;8.97;;;15.30;99.90;;;;;;5072898;28;20214;-51
2021/05/30 10:09:23;;;;;;;11.47;8.83;;;15.40;99.90;;;;;;5077365;28;20558;-47
2021/05/30 10:11:50;;;;;;;13.47;7.80;;;15.50;99.90;;;;;;5071038;28;20209;-47
2021/05/30 10:14:16;;;;;;;11.03;8.60;;;15.50;99.90;;;;;;5076058;28;20202;-49
2021/05/30 10:16:44;;;;;;;15.90;8.47;;;15.60;99.90;;;;;;5079644;28;20232;-48
2021/05/30 10:19:14;;;;;;;13.93;9.23;;;15.70;99.90;;;;;;5083082;28;20674;-50
2021/05/30 10:21:43;;;;;;;9.77;8.23;;;15.90;99.90;;;;;;5057696;28;20210;-49
2021/05/30 10:24:11;;;;;;;14.33;8.97;;;16.00;99.90;;;;;;5074938;28;20727;-47
2021/05/30 10:26:38;;;;;;;13.27;8.73;;;15.90;99.90;;;;;;5072723;28;20212;-47
2021/05/30 10:29:13;;;;;;;11.73;8.80;;;15.80;99.90;;;;;;5076730;28;20197;-50
2021/05/30 10:31:41;;;;;;;17.00;8.77;;;15.80;99.90;;;;;;5075774;28;20685;-47
2021/05/30 10:34:19;;;;;;;14.07;9.33;;;15.90;99.90;;;;;;5078866;28;20191;-45
2021/05/30 10:37:21;;;;;;;9.90;7.73;;;16.00;99.90;;;;;;5064251;28;20217;-48
2021/05/30 10:39:48;;;;;;;10.70;7.77;;;16.00;99.90;;;;;;5074453;28;20883;-46
2021/05/30 10:42:17;;;;;;;10.37;8.07;;;16.10;99.90;;;;;;5079025;28;20205;-50
2021/05/30 10:44:52;;;;;;;13.03;7.70;;;16.10;99.90;;;;;;5070619;28;20305;-48
2021/05/30 10:47:19;;;;;;;11.70;7.47;;;16.10;99.90;;;;;;5080111;28;20215;-46
2021/05/30 10:50:09;;;;;;;12.90;7.23;;;16.20;99.90;;;;;;5074773;28;20449;-47
2021/05/30 10:52:36;;;;;;;11.03;7.43;;;16.40;99.90;;;;;;5065889;28;20209;-48
2021/05/30 10:55:08;;;;;;;12.17;7.70;;;16.50;99.90;;;;;;5081800;28;20198;-47
2021/05/30 10:57:40;;;;;;;10.00;7.73;;;16.60;99.90;;;;;;5076916;28;20240;-51
2021/05/30 11:00:36;;;;;;;10.47;6.87;;;16.70;99.90;;;;;;5076462;28;20225;-48
2021/05/30 11:03:11;;;;;;;12.37;7.07;;;16.70;99.90;;;;;;5077026;28;20202;-51
2021/05/30 11:05:44;;;;;;;9.47;6.90;;;16.70;99.90;;;;;;5068367;28;20213;-48
2021/05/30 11:08:43;;;;;;;10.63;7.83;;;16.70;99.90;;;;;;5081294;28;20218;-47
2021/05/30 11:11:17;;;;;;;12.73;7.20;;;16.70;99.90;;;;;;5080283;28;20278;-48
2021/05/30 11:13:50;;;;;;;13.53;7.50;;;16.70;99.90;;;;;;5069590;28;20232;-48
2021/05/30 11:16:17;;;;;;;11.40;8.50;;;16.90;99.90;;;;;;5081452;28;20198;-51
2021/05/30 11:18:43;;;;;;;13.03;9.10;;;17.00;99.90;;;;;;5077863;28;20271;-48
2021/05/30 11:21:09;;;;;;;16.07;8.70;;;17.00;99.90;;;;;;5081871;28;20564;-51
2021/05/30 11:23:35;;;;;;;13.33;8.90;;;17.00;99.90;;;;;;5065326;28;20203;-51
2021/05/30 11:26:01;;;;;;;14.63;9.30;;;17.00;99.90;;;;;;5081450;28;20865;-52
2021/05/30 11:28:28;;;;;;;15.60;9.03;;;17.10;99.90;;;;;;5076984;28;20214;-50
2021/05/30 11:30:59;;;;;;;13.10;8.90;;;17.00;99.90;;;;;;5069830;28;20193;-51
2021/05/30 11:33:40;;;;;;;11.10;8.80;;;17.10;99.90;;;;;;5076101;28;20205;-49
2021/05/30 11:36:10;;;;;;;13.50;9.67;;;17.20;99.90;;;;;;5083297;28;20663;-47
2021/05/30 11:38:41;;;;;;;12.80;10.63;;;17.30;99.90;;;;;;5067887;28;20237;-50
2021/05/30 11:41:17;;;;;;;12.53;10.17;;;17.30;99.90;;;;;;5078906;28;20216;-47
2021/05/30 11:44:07;;;;;;;16.10;9.77;;;17.30;99.90;;;;;;5069198;28;20185;-51
2021/05/30 11:46:38;;;;;;;13.73;10.20;;;17.40;99.90;;;;;;5074781;28;20201;-51
2021/05/30 11:49:07;;;;;;;14.80;9.53;;;17.50;99.90;;;;;;5084946;28;20201;-49
2021/05/30 11:51:50;;;;;;;12.77;8.33;;;17.60;99.90;;;;;;5081703;28;20202;-51
2021/05/30 11:54:20;;;;;;;15.10;8.50;;;17.70;99.90;;;;;;5071271;28;20267;-48
2021/05/30 11:56:48;;;;;;;8.20;6.87;;;17.80;99.90;;;;;;5081399;28;20233;-49
2021/05/30 11:59:15;;;;;;;11.77;8.00;;;17.80;99.90;;;;;;5085356;28;20212;-49
2021/05/30 12:01:46;;;;;;;11.43;6.97;;;17.80;99.90;;;;;;5073129;28;20210;-50
2021/05/30 12:04:23;;;;;;;13.97;8.27;;;17.80;99.90;;;;;;5085796;28;20718;-47
2021/05/30 12:06:50;;;;;;;11.73;6.90;;;17.90;99.90;;;;;;5081899;28;20222;-48
2021/05/30 12:09:16;;;;;;;11.33;8.23;;;18.10;99.90;;;;;;5071092;28;20209;-47
2021/05/30 12:11:43;;;;;;;13.37;8.47;;;18.20;99.90;;;;;;5081736;28;20285;-48
2021/05/30 12:14:09;;;;;;;12.47;8.90;;;18.40;99.90;;;;;;5085387;28;20190;-46
2021/05/30 12:16:36;;;;;;;7.93;6.07;;;18.50;99.90;;;;;;5076504;28;20616;-50
2021/05/30 12:19:04;;;;;;;11.03;7.60;;;;;;;;;;5081637;28;20201;-49
2021/05/30 12:21:38;;;;;;;11.30;7.80;;;;;;;;;;5083806;28;20194;-47
2021/05/30 12:24:05;;;;;;;12.60;8.10;;;18.80;99.90;;;;;;5070682;28;20210;-47
2021/05/30 12:26:31;;;;;;;11.27;7.33;;;18.70;99.90;;;;;;5083468;28;20206;-50
2021/05/30 12:28:58;;;;;;;12.07;7.47;;;18.60;99.90;;;;;;5081915;28;20202;-51
2021/05/30 12:31:24;;;;;;;9.43;7.23;;;18.80;99.90;;;;;;5062942;28;20198;-49
2021/05/30 12:33:55;;;;;;;9.60;7.53;;;19.00;99.90;;;;;;5082872;28;20198;-51
2021/05/30 12:36:33;;;;;;;9.10;7.70;;;19.00;99.90;;;;;;5084503;28;20276;-49
2021/05/30 12:39:01;;;;;;;10.20;6.67;;;19.20;99.90;;;;;;5065550;28;20271;-50
2021/05/30 12:41:32;;;;;;;7.30;6.57;;;19.20;99.90;;;;;;5079178;28;20225;-50
2021/05/30 12:44:07;;;;;;;11.57;6.83;;;19.40;99.90;;;;;;5068159;28;20201;-46